Time,TemperatureF,DewpointF,PressureIn,WindDirection,WindDirectionDegrees,WindSpeedMPH,WindSpeedGustMPH,Humidity,HourlyPrecipIn,Conditions,Clouds,dailyrainin,SolarRadiationWatts/m^2,SoftwareType,DateUTC
2013-10-31 00:21:00,53.0,41.0,-100.00,NW,310,2.0,6.0,64,-99.99,,,-99.99,0.000000,,2013-10-31 07:21:00,
2013-10-31 00:32:00,53.0,41.0,-100.00,NW,310,2.0,6.0,64,-99.99,,,-99.99,0.000000,,2013-10-31 07:32:00,
2013-10-31 00:42:00,53.0,41.0,-100.00,NW,310,2.0,6.0,64,-99.99,,,-99.99,0.000000,,2013-10-31 07:42:00,
2013-10-31 01:22:00,54.0,39.0,-100.00,West,266,7.0,14.0,55,-99.99,,,-99.99,0.000000,,2013-10-31 08:22:00,
2013-10-31 01:32:00,54.0,39.0,-100.00,West,266,7.0,14.0,55,-99.99,,,-99.99,0.000000,,2013-10-31 08:32:00,
2013-10-31 01:42:00,54.0,39.0,-100.00,West,266,7.0,14.0,55,-99.99,,,-99.99,0.000000,,2013-10-31 08:42:00,
2013-10-31 02:21:00,54.0,41.0,-100.00,WSW,256,7.0,16.0,62,-99.99,,,-99.99,0.000000,,2013-10-31 09:21:00,
2013-10-31 02:33:00,54.0,41.0,-100.00,WSW,256,7.0,16.0,62,-99.99,,,-99.99,0.000000,,2013-10-31 09:33:00,
2013-10-31 02:43:00,54.0,41.0,-100.00,WSW,256,7.0,16.0,62,-99.99,,,-99.99,0.000000,,2013-10-31 09:43:00,
2013-10-31 03:23:00,53.0,41.0,-100.00,West,276,5.0,10.0,63,-99.99,,,-99.99,0.000000,,2013-10-31 10:23:00,
2013-10-31 03:33:00,53.0,41.0,-100.00,West,276,5.0,10.0,63,-99.99,,,-99.99,0.000000,,2013-10-31 10:33:00,
2013-10-31 03:42:00,53.0,41.0,-100.00,West,276,5.0,10.0,63,-99.99,,,-99.99,0.000000,,2013-10-31 10:42:00,
2013-10-31 04:21:00,52.0,42.0,-100.00,WNW,303,3.0,5.0,69,-99.99,,,-99.99,0.000000,,2013-10-31 11:21:00,
2013-10-31 04:33:00,52.0,42.0,-100.00,WNW,303,3.0,5.0,69,-99.99,,,-99.99,0.000000,,2013-10-31 11:33:00,
2013-10-31 04:42:00,52.0,42.0,-100.00,WNW,303,3.0,5.0,69,-99.99,,,-99.99,0.000000,,2013-10-31 11:42:00,
2013-10-31 05:21:00,53.0,44.0,30.23,WNW,286,6.0,11.0,71,-99.99,,,-99.99,0.000000,,2013-10-31 12:21:00,
2013-10-31 05:32:00,53.0,44.0,30.23,WNW,286,6.0,11.0,71,-99.99,,,-99.99,0.000000,,2013-10-31 12:32:00,
2013-10-31 05:42:00,53.0,44.0,-100.00,WNW,286,6.0,11.0,71,-99.99,,,-99.99,0.000000,,2013-10-31 12:42:00,
2013-10-31 06:22:00,55.0,44.0,-100.00,West,271,6.0,12.0,66,-99.99,,,0.00,0.000000,,2013-10-31 13:22:00,
2013-10-31 06:32:00,55.0,44.0,-100.00,West,271,6.0,12.0,66,-99.99,,,0.00,0.000000,,2013-10-31 13:32:00,
2013-10-31 06:42:00,55.0,44.0,-100.00,West,271,6.0,12.0,66,-99.99,,,0.00,0.000000,,2013-10-31 13:42:00,
2013-10-31 07:21:00,54.0,45.0,-100.00,West,264,6.0,13.0,73,-99.99,,,-99.99,0.000000,,2013-10-31 14:21:00,
2013-10-31 07:32:00,54.0,45.0,-100.00,West,264,6.0,13.0,73,-99.99,,,-99.99,0.000000,,2013-10-31 14:32:00,
2013-10-31 07:42:00,54.0,45.0,30.23,West,264,6.0,13.0,73,-99.99,,,-99.99,0.000000,,2013-10-31 14:42:00,
2013-10-31 08:11:00,52.0,46.0,-100.00,WNW,300,5.0,8.0,81,-99.99,,,0.00,0.000000,,2013-10-31 15:11:00,
2013-10-31 08:22:00,52.0,46.0,-100.00,WNW,300,5.0,8.0,81,-99.99,,,0.00,0.000000,,2013-10-31 15:22:00,
2013-10-31 09:22:00,51.0,47.0,-100.00,WNW,300,4.0,7.0,87,-99.99,,,-99.99,0.350000,,2013-10-31 16:22:00,
2013-10-31 09:33:00,51.0,47.0,-100.00,WNW,300,4.0,7.0,87,-99.99,,,-99.99,0.350000,,2013-10-31 16:33:00,
2013-10-31 09:43:00,51.0,47.0,-100.00,WNW,300,4.0,7.0,87,-99.99,,,-99.99,0.350000,,2013-10-31 16:43:00,
2013-10-31 10:12:00,51.0,49.0,-100.00,WNW,293,4.0,7.0,92,-99.99,,,-99.99,12.320000,,2013-10-31 17:12:00,
2013-10-31 10:22:00,51.0,49.0,30.26,WNW,293,4.0,7.0,92,-99.99,,,-99.99,12.320000,,2013-10-31 17:22:00,
2013-10-31 10:33:00,51.0,49.0,30.26,WNW,293,4.0,7.0,92,-99.99,,,-99.99,12.320000,,2013-10-31 17:33:00,
2013-10-31 10:43:00,51.0,49.0,-100.00,WNW,293,4.0,7.0,92,-99.99,,,-99.99,12.320000,,2013-10-31 17:43:00,
2013-10-31 11:00:00,52.0,49.0,-100.00,West,261,6.0,12.0,89,-99.99,,,-99.99,54.040001,,2013-10-31 18:00:00,
2013-10-31 11:52:00,52.0,49.0,-100.00,West,261,6.0,12.0,89,-99.99,,,-99.99,54.040001,,2013-10-31 18:52:00,
2013-10-31 12:21:00,53.0,50.0,-100.00,WSW,253,6.0,12.0,90,-99.99,,,-99.99,80.419998,,2013-10-31 19:21:00,
2013-10-31 12:32:00,53.0,50.0,-100.00,WSW,253,6.0,12.0,90,-99.99,,,-99.99,80.419998,,2013-10-31 19:32:00,
2013-10-31 12:42:00,53.0,50.0,-100.00,WSW,253,6.0,12.0,90,-99.99,,,-99.99,80.419998,,2013-10-31 19:42:00,
2013-10-31 13:22:00,54.0,49.0,-100.00,West,264,8.0,14.0,84,-99.99,,,-99.99,98.440002,,2013-10-31 20:22:00,
2013-10-31 13:32:00,54.0,49.0,-100.00,West,264,8.0,14.0,84,-99.99,,,-99.99,98.440002,,2013-10-31 20:32:00,
2013-10-31 13:42:00,54.0,49.0,-100.00,West,264,8.0,14.0,84,-99.99,,,-99.99,98.440002,,2013-10-31 20:42:00,
2013-10-31 14:21:00,55.0,50.0,30.27,West,264,8.0,14.0,82,-99.99,,,-99.99,102.269997,,2013-10-31 21:21:00,
2013-10-31 14:33:00,55.0,50.0,30.27,West,264,8.0,14.0,82,-99.99,,,-99.99,102.269997,,2013-10-31 21:33:00,
2013-10-31 14:43:00,55.0,50.0,-100.00,West,264,8.0,14.0,82,-99.99,,,-99.99,102.269997,,2013-10-31 21:43:00,
2013-10-31 15:24:00,55.0,50.0,-100.00,West,263,7.0,12.0,82,-99.99,,,-99.99,106.230003,,2013-10-31 22:24:00,
2013-10-31 15:33:00,55.0,50.0,-100.00,West,263,7.0,12.0,82,-99.99,,,-99.99,106.230003,,2013-10-31 22:33:00,
2013-10-31 15:43:00,55.0,50.0,-100.00,West,263,7.0,12.0,82,-99.99,,,-99.99,106.230003,,2013-10-31 22:43:00,
2013-10-31 16:12:00,55.0,51.0,-100.00,West,262,5.0,11.0,84,-99.99,,,-99.99,62.990002,,2013-10-31 23:12:00,
2013-10-31 16:22:00,55.0,51.0,30.27,West,262,5.0,11.0,84,-99.99,,,-99.99,62.990002,,2013-10-31 23:22:00,
2013-10-31 16:34:00,55.0,51.0,30.27,West,262,5.0,11.0,84,-99.99,,,-99.99,62.990002,,2013-10-31 23:34:00,
2013-10-31 16:42:00,55.0,51.0,30.27,West,262,5.0,11.0,84,-99.99,,,-99.99,62.990002,,2013-10-31 23:42:00,
2013-10-31 17:21:00,56.0,51.0,30.28,West,259,5.0,10.0,85,-99.99,,,-99.99,75.889999,,2013-11-01 00:21:00,
2013-10-31 17:32:00,56.0,51.0,30.28,West,259,5.0,10.0,85,-99.99,,,-99.99,75.889999,,2013-11-01 00:32:00,
2013-10-31 17:42:00,56.0,51.0,30.28,West,259,5.0,10.0,85,-99.99,,,-99.99,75.889999,,2013-11-01 00:42:00,
2013-10-31 18:12:00,55.0,51.0,30.28,West,260,5.0,10.0,86,-99.99,,,-99.99,33.360001,,2013-11-01 01:12:00,
2013-10-31 18:22:00,55.0,51.0,-100.00,West,260,5.0,10.0,86,-99.99,,,-99.99,33.360001,,2013-11-01 01:22:00,
2013-10-31 18:32:00,55.0,51.0,-100.00,West,260,5.0,10.0,86,-99.99,,,-99.99,33.360001,,2013-11-01 01:32:00,
2013-10-31 18:42:00,55.0,51.0,-100.00,West,260,5.0,10.0,86,-99.99,,,-99.99,33.360001,,2013-11-01 01:42:00,
2013-10-31 19:22:00,56.0,52.0,-100.00,WSW,257,4.0,8.0,86,-99.99,,,-99.99,5.460000,,2013-11-01 02:22:00,
2013-10-31 19:32:00,56.0,52.0,-100.00,WSW,257,4.0,8.0,86,-99.99,,,-99.99,5.460000,,2013-11-01 02:32:00,
2013-10-31 19:42:00,56.0,52.0,-100.00,WSW,257,4.0,8.0,86,-99.99,,,-99.99,5.460000,,2013-11-01 02:42:00,
2013-10-31 20:12:00,55.0,52.0,-100.00,SW,228,2.0,5.0,89,-99.99,,,-99.99,0.000000,,2013-11-01 03:12:00,
2013-10-31 20:21:00,55.0,52.0,-100.00,SW,228,2.0,5.0,89,-99.99,,,-99.99,0.000000,,2013-11-01 03:21:00,
2013-10-31 20:33:00,55.0,52.0,-100.00,SW,228,2.0,5.0,89,-99.99,,,-99.99,0.000000,,2013-11-01 03:33:00,
2013-10-31 20:44:00,55.0,52.0,-100.00,SW,228,2.0,5.0,89,-99.99,,,-99.99,0.000000,,2013-11-01 03:44:00,
2013-10-31 21:14:00,55.0,51.0,-100.00,SW,215,2.0,6.0,87,-99.99,,,-99.99,0.000000,,2013-11-01 04:14:00,
2013-10-31 21:24:00,55.0,51.0,-100.00,SW,215,2.0,6.0,87,-99.99,,,-99.99,0.000000,,2013-11-01 04:24:00,
2013-10-31 21:34:00,55.0,51.0,-100.00,SW,215,2.0,6.0,87,-99.99,,,-99.99,0.000000,,2013-11-01 04:34:00,
2013-10-31 21:43:00,55.0,51.0,30.30,SW,215,2.0,6.0,87,-99.99,,,-99.99,0.000000,,2013-11-01 04:43:00,
2013-10-31 22:23:00,55.0,51.0,30.31,West,268,2.0,7.0,85,-99.99,,,-99.99,0.000000,,2013-11-01 05:23:00,
2013-10-31 22:33:00,55.0,51.0,30.31,West,268,2.0,7.0,85,-99.99,,,-99.99,0.000000,,2013-11-01 05:33:00,
2013-10-31 22:42:00,55.0,51.0,30.31,West,268,2.0,7.0,85,-99.99,,,-99.99,0.000000,,2013-11-01 05:42:00,
2013-10-31 23:12:00,55.0,52.0,-100.00,North,352,1.0,2.0,89,-99.99,,,-99.99,0.000000,,2013-11-01 06:12:00,
2013-10-31 23:21:00,55.0,52.0,30.33,North,352,1.0,2.0,89,-99.99,,,-99.99,0.000000,,2013-11-01 06:21:00,
2013-10-31 23:32:00,55.0,52.0,30.33,North,352,1.0,2.0,89,-99.99,,,-99.99,0.000000,,2013-11-01 06:32:00,
2013-10-31 23:42:00,55.0,52.0,30.33,North,352,1.0,2.0,89,-99.99,,,-99.99,0.000000,,2013-11-01 06:42:00,